Wetterdaten: Woche 18.01.16 - 24.01.16 (KW3)
Datum Zeit Auen-Temp. Temp gefhlt Luftfeuchte Luftdruck Regen Wind Richtung Taupunkt Windben
18.01.2016 00:00 -9,1 C -9,4 C 81 % 1026,4 hPa 0,0 mm 0,6 km/h (0 Bft) S -11,7 C 0,4 km/h (0 Bft)
18.01.2016 01:00 -11,4 C -11,8 C 81 % 1026,0 hPa 0,0 mm 0,0 km/h (0 Bft) N -14,1 C 0,0 km/h (0 Bft)
18.01.2016 02:00 -13,7 C -13,9 C 79 % 1025,5 hPa 0,0 mm 0,0 km/h (0 Bft) N -16,5 C 0,0 km/h (0 Bft)
18.01.2016 03:00 -15,5 C -15,8 C 77 % 1025,1 hPa 0,0 mm 0,0 km/h (0 Bft) N -18,6 C 0,0 km/h (0 Bft)
18.01.2016 04:00 -16,0 C -16,4 C 77 % 1024,6 hPa 0,0 mm 0,0 km/h (0 Bft) N -19,1 C 0,0 km/h (0 Bft)
18.01.2016 05:00 -16,6 C -17,1 C 76 % 1024,2 hPa 0,0 mm 0,0 km/h (0 Bft) N -19,8 C 0,0 km/h (0 Bft)
18.01.2016 06:00 -17,0 C -17,5 C 76 % 1023,6 hPa 0,0 mm 0,0 km/h (0 Bft) N -20,3 C 0,0 km/h (0 Bft)
18.01.2016 07:00 -18,2 C -18,5 C 75 % 1023,4 hPa 0,0 mm 0,0 km/h (0 Bft) N -21,5 C 0,0 km/h (0 Bft)
18.01.2016 08:00 -19,0 C -19,4 C 74 % 1022,8 hPa 0,0 mm 0,0 km/h (0 Bft) N -22,4 C 0,0 km/h (0 Bft)
18.01.2016 09:00 -17,7 C -17,9 C 74 % 1022,5 hPa 0,0 mm 0,0 km/h (0 Bft) N -21,2 C 0,0 km/h (0 Bft)
18.01.2016 10:00 -14,4 C -14,2 C 76 % 1022,2 hPa 0,0 mm 0,0 km/h (0 Bft) N -17,7 C 0,0 km/h (0 Bft)
18.01.2016 11:00 -11,6 C -11,7 C 79 % 1021,7 hPa 0,0 mm 0,1 km/h (0 Bft) N -14,6 C 0,3 km/h (0 Bft)
18.01.2016 12:00 -10,1 C -10,0 C 80 % 1021,0 hPa 0,0 mm 0,9 km/h (0 Bft) O-SO -12,8 C 2,4 km/h (1 Bft)
18.01.2016 13:00 -9,3 C -9,2 C 80 % 1020,0 hPa 0,0 mm 0,8 km/h (0 Bft) N-NO -12,1 C 2,8 km/h (1 Bft)
18.01.2016 14:00 -7,2 C -3,3 C 80 % 1019,3 hPa 0,0 mm 1,1 km/h (1 Bft) O-SO -10,0 C 2,9 km/h (1 Bft)
18.01.2016 15:00 -7,7 C -4,0 C 79 % 1018,9 hPa 0,0 mm 0,1 km/h (0 Bft) N -10,7 C 0,8 km/h (0 Bft)
18.01.2016 16:00 -8,1 C -8,5 C 80 % 1018,8 hPa 0,0 mm 0,2 km/h (0 Bft) N -11,0 C 0,0 km/h (0 Bft)
18.01.2016 17:00 -9,4 C -9,8 C 80 % 1019,2 hPa 0,0 mm 0,2 km/h (0 Bft) SW -12,3 C 0,8 km/h (0 Bft)
18.01.2016 18:00 -11,4 C -11,7 C 79 % 1019,2 hPa 0,0 mm 1,9 km/h (1 Bft) S -14,2 C 4,5 km/h (1 Bft)
18.01.2016 19:00 -12,5 C -12,9 C 79 % 1019,5 hPa 0,0 mm 0,5 km/h (0 Bft) N -15,4 C 0,7 km/h (0 Bft)
18.01.2016 20:00 -14,9 C -15,5 C 77 % 1019,0 hPa 0,0 mm 0,1 km/h (0 Bft) N -18,1 C 0,2 km/h (0 Bft)
18.01.2016 21:00 -16,3 C -16,9 C 76 % 1018,5 hPa 0,0 mm 0,4 km/h (0 Bft) O-NO -19,5 C 0,7 km/h (0 Bft)
18.01.2016 22:00 -16,8 C -17,3 C 76 % 1018,5 hPa 0,0 mm 0,3 km/h (0 Bft) N -20,0 C 0,0 km/h (0 Bft)
18.01.2016 23:00 -16,5 C -17,1 C 76 % 1018,8 hPa 0,0 mm 0,0 km/h (0 Bft) N -19,7 C 0,0 km/h (0 Bft)
19.01.2016 00:00 -16,8 C -17,2 C 76 % 1018,8 hPa 0,0 mm 0,0 km/h (0 Bft) N -20,1 C 0,0 km/h (0 Bft)
19.01.2016 01:00 -16,8 C -17,1 C 75 % 1018,3 hPa 0,0 mm 0,0 km/h (0 Bft) N -20,2 C 0,0 km/h (0 Bft)
19.01.2016 02:00 -14,6 C -14,5 C 76 % 1018,1 hPa 0,0 mm 0,0 km/h (0 Bft) N -17,8 C 0,0 km/h (0 Bft)
19.01.2016 03:00 -12,1 C -11,8 C 77 % 1017,7 hPa 0,0 mm 0,0 km/h (0 Bft) N -15,4 C 0,0 km/h (0 Bft)
19.01.2016 04:00 -9,8 C -9,8 C 78 % 1017,4 hPa 0,0 mm 0,1 km/h (0 Bft) N -12,9 C 0,3 km/h (0 Bft)
19.01.2016 05:00 -8,7 C -8,8 C 82 % 1017,2 hPa 0,0 mm 0,1 km/h (0 Bft) N -11,2 C 0,4 km/h (0 Bft)
19.01.2016 06:00 -8,5 C -8,7 C 83 % 1017,2 hPa 0,0 mm 0,0 km/h (0 Bft) N -10,8 C 0,0 km/h (0 Bft)
19.01.2016 07:00 -8,5 C -8,8 C 83 % 1017,3 hPa 0,0 mm 0,0 km/h (0 Bft) N -10,9 C 0,0 km/h (0 Bft)
19.01.2016 08:00 -7,8 C -7,9 C 81 % 1017,9 hPa 0,0 mm 0,6 km/h (0 Bft) SO -10,5 C 1,2 km/h (1 Bft)
19.01.2016 09:00 -5,8 C -5,1 C 80 % 1018,2 hPa 0,0 mm 0,5 km/h (0 Bft) S-SO -8,7 C 2,0 km/h (1 Bft)
19.01.2016 10:00 -4,3 C -3,3 C 79 % 1018,8 hPa 0,0 mm 0,8 km/h (0 Bft) W -7,4 C 1,1 km/h (1 Bft)
19.01.2016 11:00 -4,3 C -3,1 C 77 % 1019,0 hPa 0,0 mm 0,3 km/h (0 Bft) O-NO -7,8 C 0,6 km/h (0 Bft)
19.01.2016 12:00 -3,9 C -2,7 C 74 % 1018,9 hPa 0,0 mm 2,1 km/h (1 Bft) O-NO -7,8 C 3,0 km/h (1 Bft)
19.01.2016 13:00 -4,2 C -3,6 C 76 % 1018,6 hPa 0,0 mm 4,0 km/h (1 Bft) O-NO -7,9 C 4,6 km/h (1 Bft)
19.01.2016 14:00 -4,1 C -3,6 C 78 % 1018,3 hPa 0,0 mm 2,3 km/h (1 Bft) O-NO -7,3 C 2,6 km/h (1 Bft)
19.01.2016 15:00 -3,8 C -3,3 C 79 % 1018,3 hPa 0,0 mm 0,6 km/h (0 Bft) O-NO -6,9 C 0,9 km/h (0 Bft)
19.01.2016 16:00 -3,4 C -3,4 C 80 % 1018,3 hPa 0,0 mm 0,7 km/h (0 Bft) N-NW -6,3 C 1,4 km/h (1 Bft)
19.01.2016 17:00 -3,5 C -3,6 C 82 % 1018,5 hPa 0,0 mm 0,0 km/h (0 Bft) N -6,2 C 0,0 km/h (0 Bft)
19.01.2016 18:00 -3,3 C -3,4 C 83 % 1018,7 hPa 0,0 mm 0,0 km/h (0 Bft) N -5,8 C 0,0 km/h (0 Bft)
19.01.2016 19:00 -3,1 C -3,2 C 83 % 1019,0 hPa 0,0 mm 0,1 km/h (0 Bft) N -5,5 C 0,0 km/h (0 Bft)
19.01.2016 20:00 -3,2 C -3,3 C 84 % 1019,0 hPa 0,0 mm 0,0 km/h (0 Bft) N -5,4 C 0,0 km/h (0 Bft)
19.01.2016 21:00 -3,1 C -3,3 C 85 % 1019,1 hPa 0,0 mm 0,0 km/h (0 Bft) N -5,3 C 0,0 km/h (0 Bft)
19.01.2016 22:00 -3,0 C -3,0 C 84 % 1019,4 hPa 0,0 mm 0,0 km/h (0 Bft) N -5,3 C 0,0 km/h (0 Bft)
19.01.2016 23:00 -3,0 C -3,1 C 85 % 1019,4 hPa 0,0 mm 0,0 km/h (0 Bft) N -5,2 C 0,0 km/h (0 Bft)
20.01.2016 00:00 -3,0 C -3,1 C 85 % 1019,5 hPa 0,0 mm 0,0 km/h (0 Bft) N -5,2 C 0,0 km/h (0 Bft)
20.01.2016 01:00 -3,1 C -3,2 C 87 % 1019,2 hPa 0,0 mm 0,0 km/h (0 Bft) N -5,0 C 0,0 km/h (0 Bft)
20.01.2016 02:00 -3,2 C -3,4 C 88 % 1019,2 hPa 0,0 mm 0,0 km/h (0 Bft) N -4,9 C 0,0 km/h (0 Bft)
20.01.2016 03:00 -3,4 C -3,5 C 86 % 1019,5 hPa 0,0 mm 0,0 km/h (0 Bft) N -5,3 C 0,0 km/h (0 Bft)
20.01.2016 04:00 -3,5 C -3,6 C 86 % 1019,7 hPa 0,0 mm 0,0 km/h (0 Bft) N -5,5 C 0,0 km/h (0 Bft)
20.01.2016 05:00 -3,6 C -3,7 C 87 % 1019,9 hPa 0,0 mm 0,0 km/h (0 Bft) N -5,5 C 0,0 km/h (0 Bft)
20.01.2016 06:00 -3,6 C -3,8 C 87 % 1020,3 hPa 0,0 mm 0,0 km/h (0 Bft) N -5,4 C 0,0 km/h (0 Bft)
20.01.2016 07:00 -3,9 C -4,0 C 87 % 1020,6 hPa 0,0 mm 0,0 km/h (0 Bft) N -5,8 C 0,0 km/h (0 Bft)
20.01.2016 08:00 -4,0 C -4,1 C 86 % 1021,2 hPa 0,0 mm 0,0 km/h (0 Bft) N -6,1 C 0,0 km/h (0 Bft)
20.01.2016 09:00 -3,6 C -3,4 C 85 % 1021,6 hPa 0,0 mm 0,0 km/h (0 Bft) N -5,8 C 0,0 km/h (0 Bft)
20.01.2016 10:00 -2,7 C -1,7 C 85 % 1021,7 hPa 0,0 mm 0,0 km/h (0 Bft) N -4,9 C 0,0 km/h (0 Bft)
20.01.2016 11:00 -2,2 C -0,8 C 85 % 1022,0 hPa 0,0 mm 0,0 km/h (0 Bft) N -4,4 C 0,0 km/h (0 Bft)
20.01.2016 12:00 -1,0 C 0,8 C 83 % 1021,9 hPa 0,0 mm 0,4 km/h (0 Bft) N-NO -3,5 C 1,8 km/h (1 Bft)
20.01.2016 13:00 -0,7 C 0,6 C 83 % 1021,8 hPa 0,0 mm 0,4 km/h (0 Bft) N -3,3 C 0,5 km/h (0 Bft)
20.01.2016 14:00 -1,0 C -0,0 C 82 % 1021,7 hPa 0,0 mm 2,8 km/h (1 Bft) N -3,7 C 4,2 km/h (1 Bft)
20.01.2016 15:00 -1,1 C -0,5 C 82 % 1021,8 hPa 0,0 mm 1,8 km/h (1 Bft) N -3,8 C 1,8 km/h (1 Bft)
20.01.2016 16:00 -1,9 C -1,8 C 82 % 1021,9 hPa 0,0 mm 0,3 km/h (0 Bft) N -4,5 C 0,0 km/h (0 Bft)
20.01.2016 17:00 -3,2 C -3,6 C 84 % 1022,2 hPa 0,0 mm 0,1 km/h (0 Bft) N -5,6 C 0,2 km/h (0 Bft)
20.01.2016 18:00 -4,5 C -4,9 C 86 % 1022,3 hPa 0,0 mm 0,2 km/h (0 Bft) N -6,6 C 0,3 km/h (0 Bft)
20.01.2016 19:00 -6,0 C -6,1 C 86 % 1021,9 hPa 0,0 mm 1,2 km/h (1 Bft) N -8,0 C 2,6 km/h (1 Bft)
20.01.2016 20:00 -7,3 C -7,3 C 85 % 1020,4 hPa 0,0 mm 0,1 km/h (0 Bft) N -9,3 C 0,3 km/h (0 Bft)
20.01.2016 21:00 -6,9 C -6,6 C 83 % 1021,1 hPa 0,0 mm 0,3 km/h (0 Bft) N -9,2 C 1,3 km/h (1 Bft)
20.01.2016 22:00 -5,4 C -5,2 C 86 % 1021,5 hPa 0,0 mm 1,3 km/h (1 Bft) N -7,3 C 1,7 km/h (1 Bft)
20.01.2016 23:00 -5,6 C -5,9 C 88 % 1021,8 hPa 0,0 mm 1,3 km/h (1 Bft) N -7,2 C 2,4 km/h (1 Bft)
21.01.2016 00:00 -6,0 C -6,7 C 88 % 1022,2 hPa 0,0 mm 5,5 km/h (1 Bft) N -7,7 C 7,8 km/h (2 Bft)
21.01.2016 01:00 -6,4 C -6,6 C 87 % 1022,4 hPa 0,0 mm 0,4 km/h (0 Bft) N -8,2 C 0,2 km/h (0 Bft)
21.01.2016 02:00 -5,7 C -6,1 C 87 % 1022,6 hPa 0,0 mm 2,9 km/h (1 Bft) N -7,5 C 4,4 km/h (1 Bft)
21.01.2016 03:00 -5,0 C -5,3 C 86 % 1022,9 hPa 0,0 mm 1,1 km/h (1 Bft) N -7,0 C 1,4 km/h (1 Bft)
21.01.2016 04:00 -4,9 C -5,2 C 85 % 1023,2 hPa 0,0 mm 0,0 km/h (0 Bft) N -7,0 C 0,0 km/h (0 Bft)
21.01.2016 05:00 -5,1 C -5,4 C 86 % 1023,3 hPa 0,0 mm 0,5 km/h (0 Bft) N -7,1 C 0,3 km/h (0 Bft)
21.01.2016 06:00 -5,2 C -5,5 C 85 % 1023,9 hPa 0,0 mm 0,1 km/h (0 Bft) N -7,3 C 0,2 km/h (0 Bft)
21.01.2016 07:00 -5,5 C -5,8 C 85 % 1024,3 hPa 0,0 mm 0,0 km/h (0 Bft) N -7,6 C 0,0 km/h (0 Bft)
21.01.2016 08:00 -5,4 C -5,5 C 84 % 1024,8 hPa 0,0 mm 0,0 km/h (0 Bft) N -7,6 C 0,0 km/h (0 Bft)
21.01.2016 09:00 -4,4 C -3,7 C 82 % 1025,6 hPa 0,0 mm 0,1 km/h (0 Bft) N -7,0 C 0,8 km/h (0 Bft)
21.01.2016 10:00 -2,9 C -1,9 C 81 % 1025,8 hPa 0,0 mm 0,5 km/h (0 Bft) N -5,7 C 1,1 km/h (0 Bft)
21.01.2016 11:00 -3,3 C -3,2 C 79 % 1025,9 hPa 0,0 mm 1,5 km/h (1 Bft) N -6,4 C 3,5 km/h (1 Bft)
21.01.2016 12:00 -3,3 C -3,1 C 79 % 1025,8 hPa 0,0 mm 2,3 km/h (1 Bft) N -6,4 C 3,6 km/h (1 Bft)
21.01.2016 13:00 -2,2 C -1,8 C 78 % 1025,9 hPa 0,0 mm 5,3 km/h (1 Bft) N -5,6 C 7,2 km/h (2 Bft)
21.01.2016 14:00 -1,7 C -1,1 C 76 % 1026,0 hPa 0,0 mm 6,8 km/h (2 Bft) O-NO -5,4 C 10,6 km/h (2 Bft)
21.01.2016 15:00 -2,3 C -2,4 C 77 % 1026,2 hPa 0,0 mm 6,1 km/h (2 Bft) O-NO -5,8 C 7,4 km/h (2 Bft)
21.01.2016 16:00 -2,9 C -3,0 C 77 % 1026,5 hPa 0,0 mm 2,5 km/h (1 Bft) O-NO -6,3 C 3,5 km/h (1 Bft)
21.01.2016 17:00 -4,2 C -4,5 C 79 % 1026,5 hPa 0,0 mm 0,4 km/h (0 Bft) N -7,4 C 0,6 km/h (0 Bft)
21.01.2016 18:00 -4,8 C -5,0 C 81 % 1026,8 hPa 0,0 mm 0,5 km/h (0 Bft) O-NO -7,5 C 0,2 km/h (0 Bft)
21.01.2016 19:00 -4,4 C -4,6 C 84 % 1027,0 hPa 0,0 mm 2,1 km/h (1 Bft) O-NO -6,7 C 3,1 km/h (1 Bft)
21.01.2016 20:00 -5,3 C -5,6 C 84 % 1027,3 hPa 0,0 mm 0,2 km/h (0 Bft) N -7,6 C 0,2 km/h (0 Bft)
21.01.2016 21:00 -6,3 C -6,6 C 85 % 1027,7 hPa 0,0 mm 0,1 km/h (0 Bft) N -8,4 C 0,2 km/h (0 Bft)
21.01.2016 22:00 -6,7 C -6,8 C 83 % 1028,1 hPa 0,0 mm 0,1 km/h (0 Bft) N -9,1 C 0,3 km/h (0 Bft)
21.01.2016 23:00 -6,7 C -6,9 C 85 % 1028,2 hPa 0,0 mm 0,7 km/h (0 Bft) O-NO -8,7 C 1,2 km/h (1 Bft)
22.01.2016 00:00 -7,2 C -7,4 C 86 % 1028,1 hPa 0,0 mm 0,1 km/h (0 Bft) N -9,2 C 0,3 km/h (0 Bft)
22.01.2016 01:00 -7,9 C -8,2 C 84 % 1029,7 hPa 0,0 mm 2,7 km/h (1 Bft) O-NO -10,2 C 2,9 km/h (1 Bft)
22.01.2016 02:00 -9,8 C -10,1 C 83 % 1029,9 hPa 0,0 mm 1,5 km/h (1 Bft) O-NO -12,1 C 1,2 km/h (1 Bft)
22.01.2016 03:00 -11,9 C -12,2 C 81 % 1030,1 hPa 0,0 mm 1,0 km/h (0 Bft) O-NO -14,4 C 1,5 km/h (1 Bft)
22.01.2016 04:00 -13,3 C -13,8 C 81 % 1029,8 hPa 0,0 mm 0,0 km/h (0 Bft) N -15,9 C 0,0 km/h (0 Bft)
22.01.2016 05:00 -14,4 C -14,8 C 80 % 1030,3 hPa 0,0 mm 0,1 km/h (0 Bft) N -17,1 C 0,0 km/h (0 Bft)
22.01.2016 06:00 -15,0 C -15,5 C 79 % 1030,4 hPa 0,0 mm 0,0 km/h (0 Bft) N -17,8 C 0,0 km/h (0 Bft)
22.01.2016 07:00 -15,1 C -15,6 C 79 % 1030,8 hPa 0,0 mm 0,1 km/h (0 Bft) N -17,9 C 0,0 km/h (0 Bft)
22.01.2016 08:00 -15,1 C -15,4 C 78 % 1031,1 hPa 0,0 mm 0,0 km/h (0 Bft) N -18,0 C 0,0 km/h (0 Bft)
22.01.2016 09:00 -13,7 C -13,9 C 79 % 1031,3 hPa 0,0 mm 0,0 km/h (0 Bft) N -16,5 C 0,0 km/h (0 Bft)
22.01.2016 10:00 -10,8 C -10,8 C 80 % 1031,2 hPa 0,0 mm 0,0 km/h (0 Bft) N -13,5 C 0,0 km/h (0 Bft)
22.01.2016 11:00 -7,8 C -7,9 C 82 % 1031,1 hPa 0,0 mm 0,0 km/h (0 Bft) N -10,3 C 0,0 km/h (0 Bft)
22.01.2016 12:00 -5,7 C -5,8 C 84 % 1030,4 hPa 0,0 mm 0,0 km/h (0 Bft) N -7,9 C 0,0 km/h (0 Bft)
22.01.2016 13:00 -4,0 C -4,1 C 87 % 1029,7 hPa 0,0 mm 0,0 km/h (0 Bft) N -5,9 C 0,0 km/h (0 Bft)
22.01.2016 14:00 -1,6 C 3,7 C 81 % 1028,0 hPa 0,0 mm 0,1 km/h (0 Bft) N -4,3 C 0,0 km/h (0 Bft)
22.01.2016 15:00 -2,3 C 3,0 C 75 % 1027,6 hPa 0,0 mm 0,0 km/h (0 Bft) N -6,1 C 0,0 km/h (0 Bft)
22.01.2016 16:00 -3,9 C -4,1 C 76 % 1028,6 hPa 0,0 mm 0,0 km/h (0 Bft) N -7,5 C 0,0 km/h (0 Bft)
22.01.2016 17:00 -5,8 C -6,3 C 79 % 1029,3 hPa 0,0 mm 0,1 km/h (0 Bft) N -8,8 C 0,3 km/h (0 Bft)
22.01.2016 18:00 -7,6 C -8,0 C 81 % 1030,5 hPa 0,0 mm 0,1 km/h (0 Bft) N -10,2 C 0,0 km/h (0 Bft)
22.01.2016 19:00 -8,7 C -8,9 C 83 % 1031,3 hPa 0,0 mm 0,0 km/h (0 Bft) N -11,1 C 0,0 km/h (0 Bft)
22.01.2016 20:00 -9,1 C -9,3 C 82 % 1031,3 hPa 0,0 mm 0,0 km/h (0 Bft) N -11,6 C 0,0 km/h (0 Bft)
22.01.2016 21:00 -7,8 C -8,0 C 85 % 1031,1 hPa 0,0 mm 0,1 km/h (0 Bft) N -9,9 C 0,0 km/h (0 Bft)
22.01.2016 22:00 -8,3 C -8,6 C 85 % 1031,1 hPa 0,0 mm 0,0 km/h (0 Bft) N -10,3 C 0,0 km/h (0 Bft)
22.01.2016 23:00 -8,1 C -8,4 C 85 % 1031,0 hPa 0,0 mm 0,1 km/h (0 Bft) N -10,1 C 0,0 km/h (0 Bft)
23.01.2016 00:00 -8,1 C -8,3 C 85 % 1031,2 hPa 0,0 mm 0,2 km/h (0 Bft) N -10,2 C 0,4 km/h (0 Bft)
23.01.2016 01:00 -7,6 C -7,6 C 84 % 1030,9 hPa 0,0 mm 0,9 km/h (0 Bft) O-NO -9,9 C 2,2 km/h (1 Bft)
23.01.2016 02:00 -6,1 C -5,9 C 84 % 1030,7 hPa 0,0 mm 0,1 km/h (0 Bft) N -8,4 C 0,5 km/h (0 Bft)
23.01.2016 03:00 -2,5 C -3,0 C 85 % 1030,6 hPa 0,0 mm 5,1 km/h (1 Bft) W-SW -4,7 C 9,6 km/h (2 Bft)
23.01.2016 04:00 1,4 C 0,7 C 70 % 1031,1 hPa 0,0 mm 7,9 km/h (2 Bft) W-SW -3,4 C 10,5 km/h (2 Bft)
23.01.2016 05:00 1,1 C 1,2 C 68 % 1030,9 hPa 0,0 mm 3,5 km/h (1 Bft) SW -4,0 C 5,2 km/h (1 Bft)
23.01.2016 06:00 0,7 C 0,3 C 77 % 1031,3 hPa 0,0 mm 5,6 km/h (1 Bft) W-SW -2,9 C 8,0 km/h (2 Bft)
23.01.2016 07:00 1,7 C 0,9 C 88 % 1032,7 hPa 1,4 mm 11,3 km/h (2 Bft) W-SW 0,0 C 17,9 km/h (3 Bft)
23.01.2016 08:00 2,2 C 1,4 C 92 % 1034,0 hPa 0,7 mm 11,9 km/h (2 Bft) W 1,0 C 16,1 km/h (3 Bft)
23.01.2016 09:00 2,6 C 2,1 C 85 % 1035,2 hPa 0,7 mm 13,8 km/h (3 Bft) W-SW 0,4 C 14,8 km/h (3 Bft)
23.01.2016 10:00 2,8 C 3,0 C 84 % 1036,4 hPa 0,0 mm 10,3 km/h (2 Bft) W 0,3 C 12,3 km/h (3 Bft)
23.01.2016 11:00 3,2 C 4,1 C 81 % 1036,8 hPa 0,0 mm 10,1 km/h (2 Bft) W 0,3 C 13,2 km/h (3 Bft)
23.01.2016 12:00 3,7 C 4,9 C 79 % 1037,0 hPa 0,0 mm 10,7 km/h (2 Bft) W-SW 0,4 C 14,7 km/h (3 Bft)
23.01.2016 13:00 3,6 C 4,1 C 77 % 1037,1 hPa 0,0 mm 9,6 km/h (2 Bft) W -0,0 C 12,7 km/h (3 Bft)
23.01.2016 14:00 3,1 C 3,8 C 79 % 1037,2 hPa 0,0 mm 8,1 km/h (2 Bft) W-SW -0,2 C 9,8 km/h (2 Bft)
23.01.2016 15:00 3,4 C 4,9 C 78 % 1037,2 hPa 0,0 mm 5,6 km/h (1 Bft) W-SW -0,0 C 7,4 km/h (2 Bft)
23.01.2016 16:00 2,7 C 2,5 C 78 % 1037,3 hPa 0,0 mm 5,1 km/h (1 Bft) W-SW -0,7 C 6,3 km/h (2 Bft)
23.01.2016 17:00 2,2 C 1,7 C 79 % 1038,2 hPa 0,0 mm 5,3 km/h (1 Bft) SW -1,0 C 7,0 km/h (2 Bft)
23.01.2016 18:00 1,5 C 0,7 C 82 % 1038,8 hPa 0,0 mm 7,1 km/h (2 Bft) SW -1,2 C 8,3 km/h (2 Bft)
23.01.2016 19:00 1,1 C 0,5 C 84 % 1039,3 hPa 0,0 mm 5,7 km/h (1 Bft) SW -1,3 C 6,4 km/h (2 Bft)
23.01.2016 20:00 0,5 C 0,2 C 85 % 1039,7 hPa 0,0 mm 3,0 km/h (1 Bft) SW -1,7 C 3,5 km/h (1 Bft)
23.01.2016 21:00 0,7 C 0,4 C 86 % 1039,9 hPa 0,0 mm 3,2 km/h (1 Bft) S -1,4 C 4,2 km/h (1 Bft)
23.01.2016 22:00 -0,8 C -1,2 C 85 % 1039,6 hPa 0,0 mm 0,4 km/h (0 Bft) N -2,9 C 1,1 km/h (1 Bft)
23.01.2016 23:00 -2,5 C -3,0 C 86 % 1039,3 hPa 0,0 mm 0,2 km/h (0 Bft) N -4,5 C 0,3 km/h (0 Bft)
24.01.2016 00:00 -2,4 C -2,9 C 88 % 1038,8 hPa 0,0 mm 0,0 km/h (0 Bft) N -4,1 C 0,0 km/h (0 Bft)
24.01.2016 01:00 -3,3 C -3,6 C 88 % 1038,2 hPa 0,0 mm 0,0 km/h (0 Bft) N -4,9 C 0,5 km/h (0 Bft)
24.01.2016 02:00 -3,8 C -4,2 C 88 % 1037,7 hPa 0,0 mm 0,2 km/h (0 Bft) N -5,6 C 0,6 km/h (0 Bft)
24.01.2016 03:00 -4,1 C -4,5 C 88 % 1037,3 hPa 0,0 mm 0,4 km/h (0 Bft) N -5,8 C 1,5 km/h (1 Bft)
24.01.2016 04:00 -4,6 C -5,0 C 88 % 1037,2 hPa 0,0 mm 0,1 km/h (0 Bft) N -6,3 C 0,5 km/h (0 Bft)
24.01.2016 05:00 -5,2 C -5,6 C 88 % 1037,1 hPa 0,0 mm 0,2 km/h (0 Bft) N -6,8 C 0,3 km/h (0 Bft)
24.01.2016 06:00 -6,0 C -6,4 C 88 % 1037,1 hPa 0,0 mm 0,1 km/h (0 Bft) N -7,7 C 0,0 km/h (0 Bft)
24.01.2016 07:00 -5,9 C -6,1 C 88 % 1036,7 hPa 0,0 mm 0,1 km/h (0 Bft) N -7,5 C 0,2 km/h (0 Bft)
24.01.2016 08:00 -4,4 C -4,5 C 85 % 1036,7 hPa 0,0 mm 0,1 km/h (0 Bft) N -6,4 C 0,3 km/h (0 Bft)
24.01.2016 09:00 -1,5 C -1,3 C 80 % 1036,6 hPa 0,0 mm 0,2 km/h (0 Bft) N -4,5 C 0,5 km/h (0 Bft)
24.01.2016 10:00 0,8 C 1,8 C 76 % 1037,0 hPa 0,0 mm 0,0 km/h (0 Bft) N -2,9 C 0,0 km/h (0 Bft)
24.01.2016 11:00 2,2 C 4,7 C 72 % 1037,1 hPa 0,0 mm 0,0 km/h (0 Bft) N -2,2 C 0,0 km/h (0 Bft)
24.01.2016 12:00 3,8 C 7,6 C 67 % 1036,8 hPa 0,0 mm 0,1 km/h (0 Bft) N -1,7 C 0,4 km/h (0 Bft)
24.01.2016 13:00 5,6 C 9,6 C 61 % 1036,6 hPa 0,0 mm 0,0 km/h (0 Bft) N -1,3 C 0,0 km/h (0 Bft)
24.01.2016 14:00 5,8 C 10,1 C 58 % 1036,4 hPa 0,0 mm 0,1 km/h (0 Bft) N -1,8 C 0,0 km/h (0 Bft)
24.01.2016 15:00 6,4 C 9,8 C 53 % 1036,4 hPa 0,0 mm 1,3 km/h (1 Bft) W-SW -2,4 C 2,8 km/h (1 Bft)
24.01.2016 16:00 5,6 C 6,1 C 48 % 1036,4 hPa 0,0 mm 1,7 km/h (1 Bft) W -4,4 C 3,5 km/h (1 Bft)
24.01.2016 17:00 3,5 C 3,8 C 54 % 1036,6 hPa 0,0 mm 0,8 km/h (0 Bft) S-SW -5,0 C 1,2 km/h (1 Bft)
24.01.2016 18:00 4,0 C 3,9 C 53 % 1036,6 hPa 0,0 mm 5,5 km/h (1 Bft) SW -4,6 C 7,7 km/h (2 Bft)
24.01.2016 19:00 2,8 C 3,1 C 59 % 1036,5 hPa 0,0 mm 1,0 km/h (0 Bft) S -4,5 C 1,0 km/h (0 Bft)
24.01.2016 20:00 2,0 C 1,8 C 65 % 1036,1 hPa 0,0 mm 0,1 km/h (0 Bft) N -3,8 C 0,3 km/h (0 Bft)
24.01.2016 21:00 1,7 C 1,5 C 69 % 1035,9 hPa 0,0 mm 0,1 km/h (0 Bft) N -3,4 C 0,3 km/h (0 Bft)
24.01.2016 22:00 2,1 C 2,2 C 69 % 1035,9 hPa 0,0 mm 0,6 km/h (0 Bft) S-SO -3,0 C 0,7 km/h (0 Bft)
24.01.2016 23:00 2,2 C 2,3 C 68 % 1035,9 hPa 0,0 mm 1,0 km/h (0 Bft) S-SO -3,0 C 1,4 km/h (1 Bft)
Min-Datum _ 18.01.16 18.01.16 24.01.16 19.01.16 - 24.01.16 - 18.01.16 24.01.16
_ Min-Zeit 08:00 08:00 16:25 06:05 - 23:00 - 08:00 23:15
Minimum _ -19,8 C -19,7 C 47 % 1017,1 hPa - 0,0 km/h (0 Bft) - -23,2 C 0,0 km/h (0 Bft)
Max-Datum _ 24.01.16 24.01.16 23.01.16 23.01.16 23.01.16 23.01.16 - 23.01.16 23.01.16
_ Max-Zeit 15:00 15:00 08:10 21:05 07:15 09:10 - 09:20 07:30
Maximum _ 6,7 C 12,5 C 92 % 1040,0 hPa 1,4 mm 17,1 km/h
W-SW (3 Bft)
- 1,3 C 35,5 km/h
W-SW (5 Bft)
Durchschnitt _ -5,2 C -5,0 C 80 % 1027,0 hPa #2,7 mm 1,4 km/h (1 Bft) N -8,1 C 2,0 km/h (1 Bft)